createdAt,value
2022-09-14T00:02:09.558Z,62.17
2022-09-14T00:05:11.540Z,62.72
2022-09-14T00:08:14.047Z,64.15
2022-09-14T00:11:15.765Z,63.06
2022-09-14T00:14:19.416Z,62.73
2022-09-14T00:17:20.984Z,62.32
2022-09-14T00:20:22.830Z,61.90
2022-09-14T00:23:24.442Z,62.15
2022-09-14T00:26:26.600Z,62.10
2022-09-14T00:29:28.711Z,62.53
2022-09-14T00:32:30.287Z,61.98
2022-09-14T00:35:35.419Z,61.40
2022-09-14T00:38:38.597Z,61.52
2022-09-14T00:41:44.523Z,61.40
2022-09-14T00:44:46.058Z,61.92
2022-09-14T00:47:51.146Z,62.36
2022-09-14T00:50:54.146Z,62.63
2022-09-14T00:53:56.096Z,62.14
2022-09-14T00:57:01.693Z,62.23
2022-09-14T01:00:06.272Z,62.01
2022-09-14T01:03:07.864Z,62.00
2022-09-14T01:06:51.348Z,61.76
2022-09-14T01:10:22.913Z,62.25
2022-09-14T01:13:47.440Z,62.95
2022-09-14T01:16:49.034Z,63.86
2022-09-14T01:20:02.960Z,64.21
2022-09-14T01:23:35.666Z,63.72
2022-09-14T01:26:49.273Z,65.19
2022-09-14T01:30:24.343Z,65.10
2022-09-14T01:33:37.228Z,64.60
2022-09-14T01:36:43.095Z,65.00
2022-09-14T01:39:50.796Z,64.65
2022-09-14T01:42:59.545Z,64.65
2022-09-14T01:46:08.964Z,65.17
2022-09-14T01:49:19.036Z,64.99
2022-09-14T01:52:26.817Z,64.47
2022-09-14T01:55:35.348Z,64.08
2022-09-14T01:58:43.855Z,65.05
2022-09-14T02:01:50.890Z,65.38
2022-09-14T02:05:14.470Z,64.26
2022-09-14T02:08:16.712Z,63.90
2022-09-14T02:11:18.579Z,64.59
2022-09-14T02:14:20.475Z,64.41
2022-09-14T02:17:22.881Z,64.53
2022-09-14T02:20:46.958Z,63.85
2022-09-14T02:23:49.241Z,64.68
2022-09-14T02:26:52.488Z,63.30
2022-09-14T02:29:54.362Z,63.36
2022-09-14T02:33:25.292Z,64.17
2022-09-14T02:36:45.474Z,64.15
2022-09-14T02:40:05.801Z,65.14
2022-09-14T02:43:22.798Z,65.30
2022-09-14T02:46:50.454Z,66.48
2022-09-14T02:50:41.921Z,66.94
2022-09-14T02:54:24.979Z,68.03
2022-09-14T02:57:27.078Z,67.38
2022-09-14T03:00:31.195Z,66.73
2022-09-14T03:03:35.768Z,67.03
2022-09-14T03:06:37.895Z,67.39
2022-09-14T03:09:40.460Z,66.67
2022-09-14T03:12:42.022Z,66.93
2022-09-14T03:15:43.875Z,67.39
2022-09-14T03:18:46.181Z,68.41
2022-09-14T03:21:47.796Z,69.95
2022-09-14T03:24:49.674Z,68.80
2022-09-14T03:27:53.282Z,68.01
2022-09-14T03:30:55.567Z,68.63
2022-09-14T03:33:59.781Z,68.93
2022-09-14T03:37:01.361Z,69.08
2022-09-14T03:40:03.617Z,68.37
2022-09-14T03:43:05.246Z,69.26
2022-09-14T03:46:12.931Z,69.17
2022-09-14T03:49:14.630Z,69.73
2022-09-14T03:52:17.444Z,69.48
2022-09-14T03:55:19.715Z,69.45
2022-09-14T03:58:21.402Z,69.30
2022-09-14T04:01:23.795Z,69.76
2022-09-14T04:04:25.821Z,70.64
2022-09-14T04:07:27.896Z,70.36
2022-09-14T04:10:29.639Z,70.28
2022-09-14T04:13:31.220Z,70.93
2022-09-14T04:16:33.263Z,71.20
2022-09-14T04:19:37.551Z,69.76
2022-09-14T04:22:39.206Z,69.15
2022-09-14T04:25:41.136Z,69.81
2022-09-14T04:28:43.386Z,69.91
2022-09-14T04:31:45.032Z,71.06
2022-09-14T04:34:48.595Z,71.43
2022-09-14T04:37:50.501Z,71.51
2022-09-14T04:40:52.184Z,71.72
2022-09-14T04:43:55.342Z,70.83
2022-09-14T04:46:57.266Z,70.88
2022-09-14T04:49:58.984Z,69.15
2022-09-14T04:53:00.765Z,70.84
2022-09-14T04:56:05.213Z,69.00
2022-09-14T04:59:07.819Z,67.59
2022-09-14T05:02:09.486Z,67.18
2022-09-14T05:05:11.326Z,66.43
2022-09-14T05:08:13.145Z,65.97
2022-09-14T05:11:20.429Z,65.56
2022-09-14T05:14:21.993Z,64.65
2022-09-14T05:17:23.565Z,64.41
2022-09-14T05:20:25.433Z,63.84
2022-09-14T05:23:27.062Z,64.26
2022-09-14T05:26:31.229Z,63.40
2022-09-14T05:29:32.920Z,62.54
2022-09-14T05:32:34.871Z,61.85
2022-09-14T05:35:36.529Z,61.88
2022-09-14T05:38:39.828Z,60.80
2022-09-14T05:41:41.408Z,59.76
2022-09-14T05:44:43.184Z,59.26
2022-09-14T05:47:44.933Z,58.50
2022-09-14T05:50:47.135Z,59.46
2022-09-14T05:53:54.400Z,58.25
2022-09-14T05:56:55.924Z,58.40
2022-09-14T05:59:57.799Z,59.70
2022-09-14T06:02:59.379Z,58.32
2022-09-14T06:06:01.367Z,58.37
2022-09-14T06:09:04.003Z,57.96
2022-09-14T06:12:05.964Z,58.05
2022-09-14T06:15:08.281Z,58.13
2022-09-14T06:18:09.898Z,57.84
2022-09-14T06:21:15.337Z,58.17
2022-09-14T06:24:17.023Z,57.67
2022-09-14T06:27:18.920Z,57.79
2022-09-14T06:30:21.152Z,57.26
2022-09-14T06:33:23.497Z,57.04
2022-09-14T06:36:27.176Z,57.15
2022-09-14T06:39:29.038Z,57.83
2022-09-14T06:42:31.225Z,57.30
2022-09-14T06:45:33.179Z,56.42
2022-09-14T06:48:41.200Z,57.46
2022-09-14T06:51:45.593Z,55.60
2022-09-14T06:54:47.236Z,54.58
2022-09-14T06:57:49.379Z,54.01
2022-09-14T07:00:50.976Z,54.90
2022-09-14T07:03:53.865Z,54.09
2022-09-14T07:06:55.460Z,51.58
2022-09-14T07:09:57.029Z,52.46
2022-09-14T07:13:00.030Z,52.35
2022-09-14T07:16:03.441Z,51.85
2022-09-14T07:19:07.665Z,49.50
2022-09-14T07:22:09.225Z,49.76
2022-09-14T07:25:11.121Z,48.53
2022-09-14T07:28:12.815Z,48.81
2022-09-14T07:31:25.001Z,48.24
2022-09-14T07:34:26.673Z,50.07
2022-09-14T07:37:29.962Z,51.09
2022-09-14T07:40:32.128Z,52.06
2022-09-14T07:43:34.008Z,53.22
2022-09-14T07:46:41.963Z,52.94
2022-09-14T07:49:43.594Z,54.62
2022-09-14T07:52:45.276Z,56.28
2022-09-14T07:55:47.370Z,57.46
2022-09-14T07:58:55.488Z,60.55
2022-09-14T08:02:00.356Z,61.38
2022-09-14T08:05:02.409Z,62.57
2022-09-14T08:08:04.099Z,64.91
2022-09-14T08:11:29.703Z,67.40
2022-09-14T08:14:31.694Z,68.30
2022-09-14T08:17:33.307Z,70.53
2022-09-14T08:20:35.005Z,71.11
2022-09-14T08:23:37.370Z,73.08
2022-09-14T08:26:40.835Z,70.94
2022-09-14T08:29:42.650Z,72.76
2022-09-14T08:32:45.877Z,72.07
2022-09-14T08:35:57.920Z,73.41
2022-09-14T08:39:00.826Z,72.91
2022-09-14T08:42:06.134Z,71.60
2022-09-14T08:45:09.839Z,70.94
2022-09-14T08:48:26.952Z,71.47
2022-09-14T08:51:29.177Z,71.72
2022-09-14T08:54:32.888Z,70.88
2022-09-14T08:57:58.136Z,70.28
2022-09-14T09:01:16.639Z,69.00
2022-09-14T09:04:46.545Z,69.34
2022-09-14T09:08:33.065Z,68.74
2022-09-14T09:11:41.545Z,68.18
2022-09-14T09:14:54.641Z,66.58
2022-09-14T09:18:06.759Z,70.88
2022-09-14T09:21:22.170Z,67.77
2022-09-14T09:24:37.537Z,66.79
2022-09-14T09:27:39.356Z,61.79
2022-09-14T09:30:41.637Z,60.76
2022-09-14T09:33:50.862Z,56.15
2022-09-14T09:36:53.649Z,45.99
2022-09-14T09:39:55.394Z,48.10
2022-09-14T09:43:07.116Z,51.09
2022-09-14T09:46:09.136Z,52.24
2022-09-14T09:49:25.755Z,54.51
2022-09-14T09:52:28.872Z,55.58
2022-09-14T09:55:37.682Z,56.60
2022-09-14T09:58:39.709Z,57.62
2022-09-14T10:01:41.661Z,59.10
2022-09-14T10:05:28.946Z,58.14
2022-09-14T10:08:34.962Z,58.35
2022-09-14T10:11:38.454Z,56.94
2022-09-14T10:14:41.027Z,57.75
2022-09-14T10:18:13.587Z,57.51
2022-09-14T10:21:20.632Z,57.22
2022-09-14T10:24:22.201Z,55.68
2022-09-14T10:27:42.005Z,56.49
2022-09-14T10:30:51.181Z,56.55
2022-09-14T10:33:56.595Z,56.41
2022-09-14T10:37:11.760Z,55.89
2022-09-14T10:40:24.568Z,53.96
2022-09-14T10:44:02.382Z,54.97
2022-09-14T10:47:10.004Z,53.42
2022-09-14T10:50:25.059Z,53.54
2022-09-14T10:53:39.299Z,54.24
2022-09-14T10:57:03.817Z,54.21
2022-09-14T11:00:13.204Z,55.72
2022-09-14T11:03:45.827Z,55.18
2022-09-14T11:07:29.999Z,54.60
2022-09-14T11:10:58.055Z,53.69
2022-09-14T11:14:28.310Z,53.07
2022-09-14T11:17:57.798Z,53.23
2022-09-14T11:21:11.812Z,52.29
2022-09-14T11:24:33.535Z,54.45
2022-09-14T11:27:55.448Z,54.92
2022-09-14T11:31:12.424Z,55.78
2022-09-14T11:34:26.109Z,56.02
2022-09-14T11:37:42.680Z,55.75
2022-09-14T11:41:07.713Z,57.50
2022-09-14T11:44:21.496Z,58.35
2022-09-14T11:47:25.048Z,57.83
2022-09-14T11:50:30.112Z,57.86
2022-09-14T11:53:33.657Z,58.30
2022-09-14T11:56:35.649Z,57.88
2022-09-14T11:59:40.281Z,57.82
2022-09-14T12:02:43.098Z,58.17
2022-09-14T12:05:46.280Z,57.48
2022-09-14T12:08:48.008Z,55.69
2022-09-14T12:11:51.997Z,54.13
2022-09-14T12:14:59.718Z,55.14
2022-09-14T12:18:01.227Z,56.44
2022-09-14T12:21:08.074Z,57.17
2022-09-14T12:24:15.578Z,57.50
2022-09-14T12:27:23.257Z,55.53
2022-09-14T12:30:40.912Z,58.16
2022-09-14T12:33:45.460Z,56.17
2022-09-14T12:36:47.024Z,55.92
2022-09-14T12:40:24.538Z,55.20
2022-09-14T12:43:35.215Z,54.97
2022-09-14T12:46:38.974Z,54.70
2022-09-14T12:49:41.373Z,55.11
2022-09-14T12:52:52.243Z,50.54
2022-09-14T12:56:00.844Z,54.93
2022-09-14T12:59:07.299Z,55.00
2022-09-14T13:02:27.631Z,55.19
2022-09-14T13:05:32.239Z,55.31
2022-09-14T13:08:34.821Z,53.66
2022-09-14T13:11:40.387Z,54.61
2022-09-14T13:14:44.716Z,55.66
2022-09-14T13:18:18.127Z,54.07
2022-09-14T13:21:22.411Z,52.13
2022-09-14T13:24:38.845Z,51.56
2022-09-14T13:27:40.460Z,51.33
2022-09-14T13:30:43.181Z,51.99
2022-09-14T13:33:53.125Z,52.44
2022-09-14T13:36:56.256Z,52.67
2022-09-14T13:39:59.851Z,52.08
2022-09-14T13:43:02.308Z,52.98
2022-09-14T13:46:08.123Z,52.95
2022-09-14T13:49:12.400Z,52.67
2022-09-14T13:53:02.554Z,52.69
2022-09-14T13:56:22.854Z,54.33
2022-09-14T13:59:24.557Z,54.39
2022-09-14T14:02:27.940Z,53.28
2022-09-14T14:05:40.061Z,53.91
2022-09-14T14:08:41.675Z,54.13
2022-09-14T14:11:51.872Z,53.36
2022-09-14T14:14:57.007Z,54.73
2022-09-14T14:17:58.613Z,54.55
2022-09-14T14:21:14.936Z,52.51
2022-09-14T14:24:26.852Z,52.15
2022-09-14T14:27:33.058Z,50.07
2022-09-14T14:30:40.296Z,51.74
2022-09-14T14:33:53.444Z,52.61
2022-09-14T14:36:55.961Z,52.13
2022-09-14T14:39:57.799Z,52.33
2022-09-14T14:43:03.770Z,54.45
2022-09-14T14:46:07.442Z,52.94
2022-09-14T14:49:17.411Z,54.32
2022-09-14T14:52:19.926Z,52.86
2022-09-14T14:55:23.424Z,56.95
2022-09-14T14:58:25.154Z,57.91
2022-09-14T15:01:26.904Z,57.86
2022-09-14T15:04:28.720Z,57.69
2022-09-14T15:07:30.419Z,57.52
2022-09-14T15:10:32.333Z,54.60
2022-09-14T15:13:33.919Z,56.64
2022-09-14T15:16:35.518Z,55.76
2022-09-14T15:19:37.336Z,57.04
2022-09-14T15:22:42.842Z,54.35
2022-09-14T15:25:44.825Z,53.33
2022-09-14T15:28:48.463Z,52.65
2022-09-14T15:31:50.314Z,54.20
2022-09-14T15:34:53.827Z,56.51
2022-09-14T15:37:55.576Z,55.46
2022-09-14T15:40:57.430Z,53.24
2022-09-14T15:43:59.535Z,56.81
2022-09-14T15:47:01.428Z,57.55
2022-09-14T15:50:04.330Z,58.99
2022-09-14T15:53:05.909Z,59.59
2022-09-14T15:56:12.278Z,57.88
2022-09-14T15:59:14.121Z,57.70
2022-09-14T16:02:17.689Z,58.12
2022-09-14T16:05:19.599Z,59.91
2022-09-14T16:08:21.398Z,59.78
2022-09-14T16:11:24.115Z,58.87
2022-09-14T16:14:25.715Z,60.93
2022-09-14T16:17:27.300Z,61.47
2022-09-14T16:20:29.366Z,61.81
2022-09-14T16:23:32.519Z,61.31
2022-09-14T16:26:36.834Z,61.29
2022-09-14T16:29:40.682Z,61.43
2022-09-14T16:32:42.442Z,62.60
2022-09-14T16:35:44.036Z,64.76
2022-09-14T16:38:45.796Z,66.89
2022-09-14T16:41:47.440Z,68.31
2022-09-14T16:44:49.379Z,67.82
2022-09-14T16:47:52.068Z,67.81
2022-09-14T16:50:54.343Z,69.52
2022-09-14T16:53:57.520Z,72.00
2022-09-14T16:57:01.083Z,73.68
2022-09-14T17:00:04.386Z,74.64
2022-09-14T17:03:05.985Z,73.36
2022-09-14T17:06:11.174Z,77.04
2022-09-14T17:09:23.324Z,78.79
2022-09-14T17:12:25.200Z,78.72
2022-09-14T17:15:26.793Z,76.68
2022-09-14T17:18:29.107Z,79.32
2022-09-14T17:21:38.323Z,78.47
2022-09-14T17:24:40.363Z,78.72
2022-09-14T17:27:42.218Z,77.45
2022-09-14T17:30:44.075Z,76.90
2022-09-14T17:33:47.372Z,76.95
2022-09-14T17:36:49.031Z,77.28
2022-09-14T17:39:50.940Z,77.40
2022-09-14T17:42:52.650Z,76.97
2022-09-14T17:45:56.732Z,77.76
2022-09-14T17:48:59.781Z,77.64
2022-09-14T17:52:02.252Z,77.61
2022-09-14T17:55:04.501Z,77.60
2022-09-14T17:58:06.303Z,78.49
2022-09-14T18:01:14.052Z,79.25
2022-09-14T18:04:17.107Z,79.30
2022-09-14T18:07:19.034Z,79.14
2022-09-14T18:10:21.104Z,79.34
2022-09-14T18:13:23.170Z,79.90
2022-09-14T18:16:26.182Z,79.51
2022-09-14T18:19:28.190Z,78.69
2022-09-14T18:22:30.085Z,78.36
2022-09-14T18:25:32.570Z,78.65
2022-09-14T18:28:35.924Z,79.96
2022-09-14T18:31:38.566Z,80.30
2022-09-14T18:34:40.818Z,83.32
2022-09-14T18:37:42.859Z,84.27
2022-09-14T18:40:45.051Z,84.37
2022-09-14T18:43:50.366Z,85.55
2022-09-14T18:46:52.824Z,87.14
2022-09-14T18:49:55.062Z,89.62
2022-09-14T18:52:57.300Z,89.94
2022-09-14T18:56:07.881Z,91.82
2022-09-14T18:59:13.502Z,92.51
2022-09-14T19:02:15.718Z,91.47
2022-09-14T19:05:17.489Z,89.13
2022-09-14T19:08:19.906Z,88.32
2022-09-14T19:11:24.128Z,87.57
2022-09-14T19:14:26.355Z,87.65
2022-09-14T19:17:28.558Z,87.47
2022-09-14T19:20:48.666Z,87.42
2022-09-14T19:24:11.296Z,87.33
2022-09-14T19:27:13.540Z,86.45
2022-09-14T19:30:16.421Z,86.52
2022-09-14T19:33:18.592Z,85.96
2022-09-14T19:36:22.575Z,86.41
2022-09-14T19:39:26.052Z,85.97
2022-09-14T19:42:28.077Z,85.73
2022-09-14T19:45:30.976Z,85.34
2022-09-14T19:48:34.176Z,87.26
2022-09-14T19:51:36.291Z,87.40
2022-09-14T19:54:38.447Z,88.99
2022-09-14T19:57:40.641Z,88.68
2022-09-14T20:00:42.272Z,91.96
2022-09-14T20:03:45.713Z,91.29
2022-09-14T20:06:48.610Z,90.96
2022-09-14T20:09:50.664Z,92.64
2022-09-14T20:12:54.733Z,93.22
2022-09-14T20:15:56.962Z,92.71
2022-09-14T20:19:02.455Z,91.58
2022-09-14T20:22:04.984Z,90.75
2022-09-14T20:25:08.123Z,91.12
2022-09-14T20:28:10.375Z,90.15
2022-09-14T20:31:13.775Z,89.72
2022-09-14T20:34:18.181Z,89.87
2022-09-14T20:37:19.756Z,89.08
2022-09-14T20:40:21.753Z,89.25
2022-09-14T20:43:23.882Z,88.27
2022-09-14T20:46:31.057Z,87.42
2022-09-14T20:49:33.021Z,87.01
2022-09-14T20:52:36.236Z,86.19
2022-09-14T20:55:37.861Z,85.23
2022-09-14T20:58:41.104Z,85.73
2022-09-14T21:01:44.926Z,85.94
2022-09-14T21:04:47.290Z,85.68
2022-09-14T21:07:56.105Z,86.29
2022-09-14T21:11:02.203Z,86.87
2022-09-14T21:14:04.262Z,85.60
2022-09-14T21:17:05.900Z,86.05
2022-09-14T21:20:08.782Z,85.59
2022-09-14T21:23:10.453Z,84.68
2022-09-14T21:26:12.955Z,84.97
2022-09-14T21:29:24.797Z,85.12
2022-09-14T21:32:26.475Z,85.28
2022-09-14T21:35:33.420Z,84.75
2022-09-14T21:38:35.550Z,84.52
2022-09-14T21:41:38.847Z,83.81
2022-09-14T21:44:40.419Z,84.10
2022-09-14T21:47:42.001Z,84.28
2022-09-14T21:50:47.274Z,85.01
2022-09-14T21:53:50.567Z,84.65
2022-09-14T21:56:52.973Z,86.14
2022-09-14T21:59:54.939Z,85.40
2022-09-14T22:02:56.639Z,84.61
2022-09-14T22:06:04.587Z,83.92
2022-09-14T22:09:07.175Z,83.14
2022-09-14T22:12:09.052Z,83.06
2022-09-14T22:15:11.141Z,82.74
2022-09-14T22:18:14.726Z,82.57
2022-09-14T22:21:17.490Z,82.21
2022-09-14T22:24:22.911Z,82.20
2022-09-14T22:27:24.572Z,82.49
2022-09-14T22:30:26.422Z,81.86
2022-09-14T22:33:29.224Z,82.13
2022-09-14T22:36:31.178Z,82.47
2022-09-14T22:39:33.081Z,81.58
2022-09-14T22:42:36.718Z,80.51
2022-09-14T22:45:38.355Z,81.69
2022-09-14T22:48:41.026Z,82.22
2022-09-14T22:51:42.708Z,81.96
2022-09-14T22:54:44.283Z,82.02
2022-09-14T22:57:46.100Z,82.41
2022-09-14T23:00:48.719Z,82.44
2022-09-14T23:03:55.594Z,81.78
2022-09-14T23:07:00.085Z,81.96
2022-09-14T23:10:01.932Z,81.89
2022-09-14T23:13:03.945Z,81.50
2022-09-14T23:16:18.151Z,82.36
2022-09-14T23:19:20.070Z,82.56
2022-09-14T23:22:22.270Z,82.45
2022-09-14T23:25:24.021Z,82.86
2022-09-14T23:28:25.614Z,82.64
2022-09-14T23:31:29.138Z,82.45
2022-09-14T23:34:31.054Z,82.00
2022-09-14T23:37:33.712Z,81.53
2022-09-14T23:40:35.291Z,80.78
2022-09-14T23:43:37.077Z,80.43
2022-09-14T23:46:38.750Z,79.65
2022-09-14T23:49:40.636Z,79.72
2022-09-14T23:52:42.366Z,79.18
2022-09-14T23:55:44.123Z,79.23
2022-09-14T23:58:45.924Z,78.47
